Time;durP1;ratioP1;P1;durP2;ratioP2;P2;SDS_P1;SDS_P2;PMS_P1;PMS_P2;Temp;Humidity;BMP_temperature;BMP_pressure;BME280_temperature;BME280_humidity;BME280_pressure;Samples;Min_cycle;Max_cycle;Signal;HPM_P1;HPM_P2
2022/12/05 00:00:07;;;;;;;;;32.50;29.25;;;;;5.70;69.31;100766.13;5015803;28;45436;-60
2022/12/05 00:02:32;;;;;;;;;31.75;27.25;;;;;5.64;67.76;100764.47;5015655;28;45499;-60
2022/12/05 00:04:57;;;;;;;;;33.50;31.25;;;;;5.58;68.64;100761.91;5015577;28;45465;-60
2022/12/05 00:07:23;;;;;;;;;32.75;31.00;;;;;5.58;68.51;100766.28;5015627;28;45543;-59
2022/12/05 00:09:48;;;;;;;;;36.50;34.75;;;;;5.58;68.61;100774.94;5015510;28;45588;-60
2022/12/05 00:12:13;;;;;;;;;32.00;31.00;;;;;5.56;68.53;100770.63;5015643;28;45856;-61
2022/12/05 00:14:39;;;;;;;;;42.00;35.50;;;;;5.58;68.42;100776.72;5016116;28;45483;-60
2022/12/05 00:17:04;;;;;;;;;34.50;29.25;;;;;5.56;68.93;100774.09;5015800;28;45530;-61
2022/12/05 00:19:29;;;;;;;;;38.25;36.00;;;;;5.59;68.43;100775.81;5015428;28;45331;-60
2022/12/05 00:21:56;;;;;;;;;36.25;31.25;;;;;5.58;68.13;100785.38;4991604;28;54024;-60
2022/12/05 00:24:22;;;;;;;;;30.75;30.25;;;;;5.54;67.44;100783.72;5006379;28;45492;-61
2022/12/05 00:26:47;;;;;;;;;31.50;30.25;;;;;5.51;68.34;100779.41;5015359;28;45491;-60
2022/12/05 00:29:13;;;;;;;;;38.75;31.75;;;;;5.52;68.44;100778.50;5015220;28;45407;-61
2022/12/05 00:31:38;;;;;;;;;38.50;36.00;;;;;5.54;68.56;100779.34;5015136;28;45513;-59
2022/12/05 00:34:03;;;;;;;;;37.75;36.75;;;;;5.57;68.39;100777.59;5015303;28;45456;-61
2022/12/05 00:36:32;;;;;;;;;41.75;34.25;;;;;5.58;68.59;100782.78;5015405;28;45436;-61
2022/12/05 00:39:00;;;;;;;;;40.50;36.00;;;;;5.59;68.13;100788.84;5015351;28;45543;-60
2022/12/05 00:41:27;;;;;;;;;39.75;35.00;;;;;5.58;68.34;100788.00;5014948;28;45417;-61
2022/12/05 00:43:54;;;;;;;;;36.25;35.00;;;;;5.60;68.45;100788.00;5014960;28;45550;-60
2022/12/05 00:46:22;;;;;;;;;38.00;34.50;;;;;5.60;68.89;100786.25;5014974;28;45527;-59
2022/12/05 00:48:47;;;;;;;;;39.00;36.00;;;;;5.62;68.52;100778.41;5015181;28;45563;-60
2022/12/05 00:51:16;;;;;;;;;38.25;35.25;;;;;5.61;68.25;100780.13;5003895;28;46114;-61
2022/12/05 00:53:42;;;;;;;;;38.25;33.25;;;;;5.58;68.45;100779.31;5011884;28;45447;-59
2022/12/05 00:56:14;;;;;;;;;40.75;34.75;;;;;5.58;68.86;100782.78;5014756;28;45504;-60
2022/12/05 00:58:40;;;;;;;;;31.25;31.25;;;;;5.59;69.13;100787.13;5014824;28;45584;-60
2022/12/05 01:01:13;;;;;;;;;23.75;21.50;;;;;5.62;69.41;100791.47;5014885;28;45506;-60
2022/12/05 01:03:40;;;;;;;;;36.50;33.25;;;;;5.62;68.87;100800.16;5014572;28;45577;-60
2022/12/05 01:06:06;;;;;;;;;36.25;34.50;;;;;5.61;68.49;100797.53;5014952;28;45452;-61
2022/12/05 01:08:33;;;;;;;;;40.00;35.25;;;;;5.58;68.75;100794.97;5014410;28;45491;-58
2022/12/05 01:10:59;;;;;;;;;37.50;35.00;;;;;5.56;68.38;100794.13;5014434;28;46298;-59
2022/12/05 01:13:26;;;;;;;;;36.50;32.50;;;;;5.53;68.33;100795.00;5015121;28;45508;-60
2022/12/05 01:15:52;;;;;;;;;33.25;30.50;;;;;5.54;68.24;100801.97;5014523;28;45492;-61
2022/12/05 01:18:18;;;;;;;;;34.25;30.50;;;;;5.51;69.34;100813.31;5014666;28;45496;-61
2022/12/05 01:20:44;;;;;;;;;38.00;31.50;;;;;5.57;68.37;100819.34;4996528;28;45493;-59
2022/12/05 01:23:10;;;;;;;;;30.25;26.00;;;;;5.56;69.14;100815.84;4996245;28;45452;-61
2022/12/05 01:25:39;;;;;;;;;38.75;32.50;;;;;5.60;68.61;100825.38;4999094;28;45466;-60
2022/12/05 01:28:05;;;;;;;;;41.50;34.00;;;;;5.60;67.95;100822.78;5010576;28;45526;-60
2022/12/05 01:30:31;;;;;;;;;36.75;34.00;;;;;5.57;67.90;100819.34;5004285;28;46150;-60
2022/12/05 01:32:56;;;;;;;;;41.00;30.75;;;;;5.55;68.45;100819.34;5014084;28;45468;-60
2022/12/05 01:35:21;;;;;;;;;37.50;31.00;;;;;5.53;68.77;100828.94;5014562;28;45747;-61
2022/12/05 01:37:47;;;;;;;;;38.00;33.25;;;;;5.53;68.45;100832.44;5000881;28;45452;-60
2022/12/05 01:40:12;;;;;;;;;41.25;35.25;;;;;5.50;68.70;100826.34;5013462;28;45503;-61
2022/12/05 01:42:39;;;;;;;;;38.00;28.50;;;;;5.51;69.16;100844.63;5014317;28;45498;-59
2022/12/05 01:45:17;;;;;;;;;39.75;36.75;;;;;5.54;69.16;100843.72;5014133;28;45560;-59
2022/12/05 01:47:43;;;;;;;;;34.25;33.25;;;;;5.55;68.80;100840.22;5014221;28;45543;-60
2022/12/05 01:50:11;;;;;;;;;36.00;33.25;;;;;5.56;68.70;100856.72;5013953;28;45820;-59
2022/12/05 01:52:38;;;;;;;;;37.75;32.50;;;;;5.52;68.90;100861.13;5014220;28;45519;-60
2022/12/05 01:55:08;;;;;;;;;42.00;36.00;;;;;5.52;68.90;100872.41;4999841;28;45472;-60
2022/12/05 01:57:33;;;;;;;;;43.50;36.00;;;;;5.54;69.19;100880.25;5013503;28;45465;-60
2022/12/05 02:00:10;;;;;;;;;36.50;30.50;;;;;5.53;69.08;100874.16;5013998;28;46048;-61
2022/12/05 02:02:37;;;;;;;;;37.25;34.25;;;;;5.54;68.61;100877.63;5014148;28;45444;-61
2022/12/05 02:05:29;;;;;;;;;35.25;33.75;;;;;5.53;68.78;100876.78;5013949;28;45527;-59
2022/12/05 02:07:57;;;;;;;;;38.25;32.50;;;;;5.54;68.27;100875.03;4983906;28;45484;-60
2022/12/05 02:10:23;;;;;;;;;39.75;35.00;;;;;5.53;68.76;100873.28;5013771;28;46432;-60
2022/12/05 02:12:51;;;;;;;;;42.75;38.25;;;;;5.54;68.42;100875.03;5001754;28;45624;-59
2022/12/05 02:15:23;;;;;;;;;34.75;33.00;;;;;5.50;68.08;100870.69;5014261;28;45492;-61
2022/12/05 02:17:51;;;;;;;;;45.75;39.25;;;;;5.47;68.65;100863.78;4995768;28;45576;-60
2022/12/05 02:20:50;;;;;;;;;49.00;41.50;;;;;5.46;68.19;100863.81;5013859;28;45424;-61
2022/12/05 02:23:24;;;;;;;;;42.25;38.75;;;;;5.48;69.38;100864.63;4991674;28;45473;-60
2022/12/05 02:25:58;;;;;;;;;56.75;43.25;;;;;5.49;69.45;100864.63;5010421;28;45483;-60
2022/12/05 02:28:47;;;;;;;;;63.25;49.75;;;;;5.49;69.09;100869.84;5005222;28;45552;-60
2022/12/05 02:31:25;;;;;;;;;70.00;55.50;;;;;5.50;68.90;100871.56;5011199;28;46230;-59
2022/12/05 02:34:19;;;;;;;;;75.25;57.50;;;;;5.47;68.95;100863.78;5013915;28;45557;-61
2022/12/05 02:37:00;;;;;;;;;69.75;57.50;;;;;5.47;68.24;100871.59;5012972;28;45487;-60
2022/12/05 02:39:35;;;;;;;;;70.25;56.50;;;;;5.46;68.34;100869.88;5013653;28;45531;-60
2022/12/05 02:42:08;;;;;;;;;66.75;52.00;;;;;5.47;68.57;100875.97;4995372;28;45574;-61
2022/12/05 02:44:47;;;;;;;;;69.25;55.00;;;;;5.44;68.59;100874.25;5013243;28;45584;-61
2022/12/05 02:47:18;;;;;;;;;55.75;43.00;;;;;5.45;68.19;100869.88;4995755;28;45527;-60
2022/12/05 02:49:44;;;;;;;;;55.75;46.00;;;;;5.42;68.50;100873.38;5013609;28;45516;-60
2022/12/05 02:52:13;;;;;;;;;57.75;46.25;;;;;5.41;68.69;100871.66;5013129;28;47359;-60
2022/12/05 02:54:41;;;;;;;;;46.25;39.25;;;;;5.42;68.88;100873.38;5013135;28;45532;-61
2022/12/05 02:57:08;;;;;;;;;48.50;41.50;;;;;5.43;68.50;100869.91;5013296;28;45504;-60
2022/12/05 02:59:34;;;;;;;;;53.50;42.50;;;;;5.43;69.11;100867.31;5013532;28;45527;-60
2022/12/05 03:01:59;;;;;;;;;48.50;41.25;;;;;5.36;68.72;100860.41;5012962;28;45833;-61
2022/12/05 03:04:26;;;;;;;;;52.50;40.50;;;;;5.38;68.49;100866.47;5013224;28;45395;-60
2022/12/05 03:06:59;;;;;;;;;41.50;37.50;;;;;5.36;68.72;100865.63;5013225;28;45472;-60
2022/12/05 03:09:32;;;;;;;;;45.75;38.25;;;;;5.32;68.68;100864.81;5015455;28;45638;-60
2022/12/05 03:12:11;;;;;;;;;43.75;38.75;;;;;5.29;68.30;100877.88;5016358;28;45498;-61
2022/12/05 03:14:43;;;;;;;;;48.00;40.25;;;;;5.25;68.88;100870.94;5017322;28;45530;-61
2022/12/05 03:17:15;;;;;;;;;40.25;36.00;;;;;5.24;68.66;100869.22;5016332;28;45429;-60
2022/12/05 03:20:04;;;;;;;;;48.75;39.25;;;;;5.22;68.56;100872.72;5015552;28;45601;-60
2022/12/05 03:22:36;;;;;;;;;42.50;37.00;;;;;5.21;68.66;100877.09;4988677;28;45548;-60
2022/12/05 03:25:02;;;;;;;;;39.00;37.00;;;;;5.19;68.81;100878.81;5013493;28;45461;-60
2022/12/05 03:27:43;;;;;;;;;45.75;40.00;;;;;5.22;69.21;100875.34;5015263;28;45503;-60
2022/12/05 03:30:13;;;;;;;;;47.25;39.00;;;;;5.21;69.27;100874.47;4998119;28;45504;-60
2022/12/05 03:32:48;;;;;;;;;39.75;35.50;;;;;5.19;68.75;100878.81;5011676;28;45514;-60
2022/12/05 03:35:22;;;;;;;;;44.25;35.75;;;;;5.16;68.37;100877.97;5016420;28;45507;-60
2022/12/05 03:38:00;;;;;;;;;40.00;35.50;;;;;5.12;68.51;100876.28;5016191;28;45522;-60
2022/12/05 03:40:45;;;;;;;;;49.75;38.25;;;;;5.10;68.74;100881.50;5016429;28;45536;-59
2022/12/05 03:43:43;;;;;;;;;48.25;39.50;;;;;5.07;68.87;100877.16;5015906;28;46542;-60
2022/12/05 03:46:16;;;;;;;;;44.00;40.50;;;;;5.07;69.55;100881.53;5015684;28;45361;-60
2022/12/05 03:49:00;;;;;;;;;49.50;41.00;;;;;5.10;68.75;100884.09;5016331;28;45665;-59
2022/12/05 03:51:34;;;;;;;;;39.00;37.50;;;;;5.08;68.79;100888.50;5015876;28;45636;-59
2022/12/05 03:54:15;;;;;;;;;39.50;33.50;;;;;5.08;69.68;100889.34;5016000;28;46531;-60
2022/12/05 03:56:47;;;;;;;;;49.50;40.25;;;;;5.14;69.44;100896.25;5015940;28;45566;-60
2022/12/05 03:59:30;;;;;;;;;44.00;39.00;;;;;5.18;69.22;100904.91;5016036;28;45551;-60
2022/12/05 04:02:00;;;;;;;;;45.00;38.25;;;;;5.21;68.87;100899.66;5015930;28;45512;-60
2022/12/05 04:04:37;;;;;;;;;49.00;42.75;;;;;5.19;68.74;100907.50;5015883;28;45629;-60
2022/12/05 04:07:06;;;;;;;;;48.75;41.50;;;;;5.22;68.97;100909.22;5015843;28;45570;-60
2022/12/05 04:09:42;;;;;;;;;48.25;39.50;;;;;5.18;67.71;100913.59;5015550;28;45551;-60
2022/12/05 04:12:13;;;;;;;;;45.25;40.00;;;;;5.16;67.96;100912.75;5015716;28;45531;-60
2022/12/05 04:14:43;;;;;;;;;49.50;38.75;;;;;5.15;68.19;100913.59;5016205;28;45473;-60
2022/12/05 04:17:34;;;;;;;;;44.25;38.25;;;;;5.13;68.53;100915.38;5015350;28;45525;-59
2022/12/05 04:22:49;;;;;;;;;45.50;39.25;;;;;5.09;68.12;100911.91;5015675;28;45500;-59
2022/12/05 04:25:32;;;;;;;;;45.00;37.50;;;;;5.08;69.06;100915.41;5012449;28;45557;-59
2022/12/05 04:28:26;;;;;;;;;46.50;39.25;;;;;5.11;69.23;100919.75;5010613;28;45571;-60
2022/12/05 04:31:10;;;;;;;;;41.25;37.75;;;;;5.06;69.10;100917.16;4992718;28;45616;-60
2022/12/05 04:34:14;;;;;;;;;43.50;39.25;;;;;5.15;69.07;100925.78;5015596;28;45444;-60
2022/12/05 04:36:42;;;;;;;;;46.00;38.75;;;;;5.16;68.95;100932.72;4934660;28;45438;-60
2022/12/05 04:39:12;;;;;;;;;54.75;42.25;;;;;5.18;69.06;100924.00;4934693;28;45540;-59
2022/12/05 04:42:10;;;;;;;;;44.25;38.75;;;;;5.18;69.24;100926.63;4975875;28;45442;-59
2022/12/05 04:45:00;;;;;;;;;42.00;37.75;;;;;5.21;69.23;100920.50;4970791;28;45618;-59
2022/12/05 04:47:31;;;;;;;;;47.00;38.00;;;;;5.23;69.70;100926.59;5015277;28;45503;-60
2022/12/05 04:49:58;;;;;;;;;50.00;39.75;;;;;5.24;69.48;100928.34;5015025;28;45509;-60
2022/12/05 04:52:27;;;;;;;;;45.75;40.50;;;;;5.24;68.99;100938.78;5015079;28;45462;-59
2022/12/05 04:55:01;;;;;;;;;41.75;38.75;;;;;5.22;69.03;100940.50;5015118;28;45495;-61
2022/12/05 04:57:38;;;;;;;;;50.50;41.00;;;;;5.23;68.85;100943.09;5015144;28;45521;-60
2022/12/05 05:00:04;;;;;;;;;44.00;39.25;;;;;5.22;68.42;100950.94;5014888;28;45424;-60
2022/12/05 05:03:10;;;;;;;;;45.75;38.00;;;;;5.20;69.31;100944.88;5014988;28;45412;-60
2022/12/05 05:05:37;;;;;;;;;51.00;42.00;;;;;5.20;68.50;100947.47;5006976;28;45603;-60
2022/12/05 05:08:02;;;;;;;;;53.00;41.50;;;;;5.20;68.31;100950.09;5014623;28;45521;-60
2022/12/05 05:10:51;;;;;;;;;51.50;41.75;;;;;5.21;68.77;100947.47;5013994;28;45691;-60
2022/12/05 05:13:19;;;;;;;;;49.00;40.25;;;;;5.21;69.10;100943.97;5014910;28;45472;-60
2022/12/05 05:15:44;;;;;;;;;51.25;40.75;;;;;5.21;68.92;100946.59;5013698;28;45547;-59
2022/12/05 05:18:10;;;;;;;;;43.75;38.50;;;;;5.21;69.01;100952.69;5014762;28;46038;-60
2022/12/05 05:20:35;;;;;;;;;51.00;42.50;;;;;5.22;68.70;100945.72;5014439;28;45445;-60
2022/12/05 05:23:00;;;;;;;;;44.25;38.25;;;;;5.18;68.94;100952.69;5014403;28;48647;-60
2022/12/05 05:25:26;;;;;;;;;40.75;37.00;;;;;5.15;68.76;100947.50;5007804;28;45441;-60
2022/12/05 05:27:54;;;;;;;;;46.00;39.25;;;;;5.20;68.81;100955.31;4996257;28;46226;-60
2022/12/05 05:30:21;;;;;;;;;47.00;40.00;;;;;5.17;69.23;100956.19;4995836;28;45408;-60
2022/12/05 05:32:46;;;;;;;;;53.75;42.00;;;;;5.13;69.04;100956.22;5014058;28;45428;-60
2022/12/05 05:35:13;;;;;;;;;42.25;38.50;;;;;5.12;68.77;100951.88;5014596;28;45583;-61
2022/12/05 05:37:39;;;;;;;;;45.50;39.50;;;;;5.09;69.18;100951.03;5013331;28;46344;-59
2022/12/05 05:40:06;;;;;;;;;43.00;37.50;;;;;5.11;68.91;100956.25;4996004;28;45484;-60
2022/12/05 05:42:31;;;;;;;;;47.00;38.75;;;;;5.08;68.60;100962.34;5014447;28;45499;-60
2022/12/05 05:45:00;;;;;;;;;44.00;37.00;;;;;5.08;68.79;100951.91;5014091;28;45594;-59
2022/12/05 05:47:25;;;;;;;;;42.50;35.50;;;;;5.12;69.00;100967.53;5014244;28;45471;-60
2022/12/05 05:49:51;;;;;;;;;37.25;36.00;;;;;5.13;69.17;100967.53;5014072;28;45448;-60
2022/12/05 05:52:16;;;;;;;;;34.50;33.00;;;;;5.14;68.74;100971.84;5014129;28;45444;-60
2022/12/05 05:54:41;;;;;;;;;41.00;36.50;;;;;5.13;68.58;100977.06;5014114;28;45690;-59
2022/12/05 05:57:07;;;;;;;;;37.25;35.75;;;;;5.10;68.48;100977.94;4996008;28;46768;-60
2022/12/05 05:59:32;;;;;;;;;43.50;36.50;;;;;5.04;68.96;100976.25;5013916;28;47503;-60
2022/12/05 06:01:57;;;;;;;;;37.00;30.75;;;;;5.06;68.57;100984.94;5014064;28;45472;-60
2022/12/05 06:04:23;;;;;;;;;36.25;31.75;;;;;5.01;68.69;100972.81;5014048;28;45454;-64
2022/12/05 06:06:48;;;;;;;;;38.25;34.50;;;;;5.08;69.16;100984.94;5013748;28;45490;-60
2022/12/05 06:09:13;;;;;;;;;35.00;32.25;;;;;5.08;69.14;100980.59;5013582;28;45548;-60
2022/12/05 06:11:38;;;;;;;;;38.75;32.75;;;;;5.04;69.01;100996.25;5013691;28;45440;-60
2022/12/05 06:14:04;;;;;;;;;43.25;37.25;;;;;5.08;68.86;100992.75;4993833;28;45495;-60
2022/12/05 06:16:30;;;;;;;;;42.00;36.50;;;;;5.09;69.11;100994.47;4993783;28;45492;-60
2022/12/05 06:18:57;;;;;;;;;37.00;35.50;;;;;5.11;69.49;100987.53;4994298;28;45547;-61
2022/12/05 06:21:23;;;;;;;;;41.00;34.25;;;;;5.09;69.12;100987.53;4992845;28;45548;-60
2022/12/05 06:23:49;;;;;;;;;34.75;34.00;;;;;5.10;68.73;101009.25;4994238;28;45530;-61
2022/12/05 06:26:17;;;;;;;;;33.25;30.00;;;;;5.11;68.39;101008.38;4994058;28;45652;-60
2022/12/05 06:28:43;;;;;;;;;31.25;30.25;;;;;5.11;69.00;100997.09;4993629;28;45485;-59
2022/12/05 06:31:13;;;;;;;;;40.75;30.00;;;;;5.13;69.16;101003.13;5010907;28;45422;-60
2022/12/05 06:33:38;;;;;;;;;35.75;33.00;;;;;5.15;69.23;101006.59;5004136;28;45600;-61
2022/12/05 06:36:07;;;;;;;;;32.25;29.25;;;;;5.16;68.47;101003.13;5008389;28;46226;-60
2022/12/05 06:38:33;;;;;;;;;43.25;33.75;;;;;5.15;68.92;101017.91;4994726;28;45557;-63
2022/12/05 06:40:58;;;;;;;;;36.25;33.00;;;;;5.13;68.32;101018.78;4997584;28;45556;-58
2022/12/05 06:43:23;;;;;;;;;43.75;34.75;;;;;5.12;68.64;101020.53;5016167;28;45670;-58
2022/12/05 06:45:49;;;;;;;;;34.00;33.50;;;;;5.13;69.13;101022.28;5016062;28;45444;-59
2022/12/05 06:48:14;;;;;;;;;36.00;32.75;;;;;5.13;68.88;101024.00;5017010;28;45456;-58
2022/12/05 06:50:46;;;;;;;;;33.00;30.50;;;;;5.16;69.74;101023.97;5017369;28;45543;-60
2022/12/05 06:53:11;;;;;;;;;34.25;33.00;;;;;5.16;68.77;101037.91;5017044;28;45528;-61
2022/12/05 06:55:36;;;;;;;;;38.25;34.00;;;;;5.16;68.54;101030.09;5008074;28;45517;-61
2022/12/05 06:58:02;;;;;;;;;39.75;34.75;;;;;5.15;68.67;101036.16;5011450;28;45448;-62
2022/12/05 07:03:11;;;;;;;;;37.75;34.25;;;;;5.11;69.36;101036.19;5010605;28;45446;-61
2022/12/05 07:05:36;;;;;;;;;40.50;32.00;;;;;5.07;68.03;101037.94;5014044;28;46235;-60
2022/12/05 07:08:01;;;;;;;;;38.50;31.50;;;;;5.02;68.61;101047.53;5009220;28;52623;-61
2022/12/05 07:10:27;;;;;;;;;33.25;32.00;;;;;5.06;69.08;101050.13;5016710;28;45488;-61
2022/12/05 07:12:52;;;;;;;;;41.25;37.25;;;;;5.08;69.11;101055.34;5016743;28;45597;-60
2022/12/05 07:15:17;;;;;;;;;42.25;36.75;;;;;5.08;69.39;101057.94;4997697;28;46341;-58
2022/12/05 07:17:42;;;;;;;;;42.00;39.25;;;;;5.06;68.81;101063.16;5007039;28;45387;-58
2022/12/05 07:20:09;;;;;;;;;48.00;40.50;;;;;5.04;69.22;101064.88;5016277;28;45472;-62
2022/12/05 07:22:35;;;;;;;;;48.75;38.75;;;;;5.00;69.19;101063.19;5004945;28;45660;-60
2022/12/05 07:25:01;;;;;;;;;39.75;36.75;;;;;5.00;69.63;101063.19;5003705;28;45551;-60
2022/12/05 07:27:26;;;;;;;;;43.50;35.25;;;;;5.01;69.63;101062.31;5002472;28;45550;-61
2022/12/05 07:29:52;;;;;;;;;41.75;35.50;;;;;5.00;69.60;101065.78;5002650;28;45479;-60
2022/12/05 07:32:17;;;;;;;;;39.25;32.75;;;;;5.02;69.52;101074.47;4997862;28;45563;-60
2022/12/05 07:34:42;;;;;;;;;40.25;35.25;;;;;5.00;69.27;101072.75;5016153;28;45597;-60
2022/12/05 07:37:08;;;;;;;;;41.00;37.50;;;;;4.99;69.44;101076.22;5016131;28;45457;-61
2022/12/05 07:39:33;;;;;;;;;44.25;34.75;;;;;4.99;69.89;101076.22;5016294;28;45556;-60
2022/12/05 07:41:58;;;;;;;;;39.00;34.50;;;;;5.00;69.68;101077.97;5016202;28;45664;-60
2022/12/05 07:44:24;;;;;;;;;34.75;32.00;;;;;5.06;69.26;101088.34;5015824;28;45467;-60
2022/12/05 07:46:49;;;;;;;;;31.50;31.00;;;;;5.04;68.31;101090.09;5015746;28;52755;-60
2022/12/05 07:49:14;;;;;;;;;40.00;32.25;;;;;5.03;68.65;101091.84;5016164;28;45425;-62
2022/12/05 07:51:40;;;;;;;;;33.50;28.75;;;;;5.07;69.25;101098.75;5015429;28;45687;-60
2022/12/05 07:54:06;;;;;;;;;27.25;27.00;;;;;5.07;68.50;101098.75;5014863;28;46279;-61
2022/12/05 07:56:31;;;;;;;;;36.50;32.00;;;;;5.06;68.05;101099.66;5015573;28;45570;-60
2022/12/05 07:58:57;;;;;;;;;34.75;26.75;;;;;5.06;68.38;101094.44;5015821;28;45544;-60
2022/12/05 08:01:25;;;;;;;;;32.25;30.00;;;;;5.06;68.03;101101.38;5015741;28;45575;-60
2022/12/05 08:03:57;;;;;;;;;29.75;29.75;;;;;5.08;68.15;101107.47;4997579;28;45486;-62
2022/12/05 08:06:26;;;;;;;;;37.00;28.25;;;;;5.08;68.45;101112.69;5015732;28;45504;-61
2022/12/05 08:08:52;;;;;;;;;35.75;30.50;;;;;5.11;68.68;101109.19;5015263;28;45421;-60
2022/12/05 08:11:20;;;;;;;;;35.00;30.25;;;;;5.08;68.17;101110.06;5015597;28;45674;-60
2022/12/05 08:13:46;;;;;;;;;30.00;29.00;;;;;5.08;68.42;101121.38;5015489;28;45823;-60
2022/12/05 08:16:14;;;;;;;;;34.50;30.00;;;;;5.02;68.70;101118.78;5016182;28;45621;-60
2022/12/05 08:18:40;;;;;;;;;41.50;35.50;;;;;5.08;69.06;101123.97;5015453;28;45425;-62
2022/12/05 08:21:18;;;;;;;;;35.00;33.00;;;;;5.12;67.82;101123.97;5015594;28;45436;-61
2022/12/05 08:23:43;;;;;;;;;34.75;32.50;;;;;5.09;68.05;101124.84;5015373;28;45923;-60
2022/12/05 08:26:12;;;;;;;;;41.75;36.50;;;;;5.05;68.12;101121.38;5015425;28;46157;-60
2022/12/05 08:28:38;;;;;;;;;37.50;35.00;;;;;5.04;68.41;101130.06;5005064;28;45410;-60
2022/12/05 08:31:12;;;;;;;;;37.00;31.00;;;;;5.03;68.08;101127.47;5011594;28;45636;-61
2022/12/05 08:33:38;;;;;;;;;36.25;33.75;;;;;5.04;68.10;101126.59;5015482;28;45544;-62
2022/12/05 08:36:05;;;;;;;;;39.00;35.50;;;;;5.03;67.88;101127.47;5014725;28;45507;-62
2022/12/05 08:38:31;;;;;;;;;41.50;35.75;;;;;5.07;68.57;101131.78;5015310;28;45520;-61
2022/12/05 08:41:00;;;;;;;;;41.00;36.00;;;;;5.05;67.87;101129.19;5015270;28;45498;-61
2022/12/05 08:43:25;;;;;;;;;41.50;32.25;;;;;5.00;68.55;101132.72;5015155;28;45556;-61
2022/12/05 08:45:52;;;;;;;;;37.00;30.25;;;;;4.98;68.20;101135.31;5014554;28;54806;-62
2022/12/05 08:48:18;;;;;;;;;38.25;35.75;;;;;4.98;69.11;101132.69;5014889;28;45526;-61
2022/12/05 08:50:43;;;;;;;;;37.25;35.00;;;;;5.01;69.27;101135.28;4997166;28;45448;-61
2022/12/05 08:53:08;;;;;;;;;36.75;35.75;;;;;5.04;68.83;101131.81;5014866;28;45613;-62
2022/12/05 08:55:34;;;;;;;;;42.25;31.25;;;;;5.03;69.31;101111.84;5015129;28;45491;-62
2022/12/05 08:57:59;;;;;;;;;45.00;36.25;;;;;5.09;68.71;101130.03;5015152;28;45428;-61
2022/12/05 09:00:25;;;;;;;;;43.00;37.00;;;;;5.11;69.08;101132.66;5015087;28;45609;-62
2022/12/05 09:02:50;;;;;;;;;41.50;37.25;;;;;5.11;68.95;101143.94;5014592;28;45432;-62
2022/12/05 09:05:16;;;;;;;;;42.50;37.75;;;;;5.11;69.15;101141.34;5014450;28;45593;-61
2022/12/05 09:07:41;;;;;;;;;44.50;37.50;;;;;5.11;68.43;101150.91;5014949;28;45548;-62
2022/12/05 09:10:08;;;;;;;;;40.25;36.00;;;;;5.11;68.98;101156.13;5014317;28;45487;-62
2022/12/05 09:12:35;;;;;;;;;50.50;39.00;;;;;5.11;68.81;101151.78;5014410;28;47282;-62
2022/12/05 09:15:01;;;;;;;;;45.25;38.00;;;;;5.13;69.42;101151.75;5014013;28;45518;-61
2022/12/05 09:17:26;;;;;;;;;41.25;37.50;;;;;5.13;69.56;101146.53;5014759;28;45749;-61
2022/12/05 09:19:52;;;;;;;;;45.00;37.50;;;;;5.14;69.28;101151.75;5014146;28;51461;-61
2022/12/05 09:22:17;;;;;;;;;45.75;37.50;;;;;5.15;69.29;101155.22;5014174;28;45837;-61
2022/12/05 09:24:43;;;;;;;;;40.00;35.50;;;;;5.17;69.26;101156.09;5014436;28;45475;-61
2022/12/05 09:27:08;;;;;;;;;42.25;36.00;;;;;5.15;69.12;101150.88;4996560;28;45548;-62
2022/12/05 09:29:33;;;;;;;;;39.75;36.50;;;;;5.17;69.50;101162.16;4996683;28;45490;-62
2022/12/05 09:31:59;;;;;;;;;41.25;37.50;;;;;5.16;69.74;101155.22;5014315;28;45912;-61
2022/12/05 09:34:24;;;;;;;;;35.50;33.50;;;;;5.16;68.63;101156.94;5013982;28;45424;-61
2022/12/05 09:36:51;;;;;;;;;36.25;34.75;;;;;5.16;68.63;101157.84;5014616;28;45540;-61
2022/12/05 09:39:17;;;;;;;;;44.50;36.00;;;;;5.13;68.70;101162.19;5014346;28;45583;-62
2022/12/05 09:42:08;;;;;;;;;32.25;32.25;;;;;5.17;69.34;101166.53;5014184;28;45532;-61
2022/12/05 09:44:40;;;;;;;;;44.75;39.50;;;;;5.16;67.99;101176.09;5004506;28;45441;-61
2022/12/05 09:47:24;;;;;;;;;40.25;36.00;;;;;5.14;68.21;101175.22;5014035;28;45543;-61
2022/12/05 09:49:54;;;;;;;;;34.25;34.25;;;;;5.11;67.82;101174.38;5014114;28;45487;-63
2022/12/05 09:52:28;;;;;;;;;28.50;25.75;;;;;5.11;67.77;101174.38;5013958;28;46128;-62
2022/12/05 09:54:54;;;;;;;;;36.00;34.25;;;;;5.13;69.04;101183.03;5014198;28;45465;-62
2022/12/05 09:57:31;;;;;;;;;42.00;35.00;;;;;5.08;68.41;101173.50;5014010;28;45531;-62
2022/12/05 10:00:05;;;;;;;;;42.75;38.00;;;;;5.12;68.97;101182.19;5013875;28;45393;-62
2022/12/05 10:02:51;;;;;;;;;47.25;39.00;;;;;5.15;68.70;101186.50;4995982;28;46947;-63
2022/12/05 10:05:24;;;;;;;;;40.00;34.50;;;;;5.17;68.70;101182.16;5013803;28;45626;-62
2022/12/05 10:08:11;;;;;;;;;40.50;37.00;;;;;5.19;68.06;101190.84;5013887;28;45370;-62
2022/12/05 10:11:08;;;;;;;;;38.50;35.75;;;;;5.20;68.57;101185.63;5013801;28;45595;-62
2022/12/05 10:13:59;;;;;;;;;47.25;39.50;;;;;5.21;67.85;101186.47;4979087;28;46253;-62
2022/12/05 10:16:31;;;;;;;;;42.00;37.75;;;;;5.16;67.55;101189.13;5010154;28;45645;-62
2022/12/05 10:19:02;;;;;;;;;50.50;39.50;;;;;5.18;68.40;101191.72;5013453;28;45543;-62
2022/12/05 10:21:45;;;;;;;;;39.75;37.00;;;;;5.20;67.57;101198.66;5013742;28;45484;-60
2022/12/05 10:24:17;;;;;;;;;51.00;41.00;;;;;5.22;68.51;101196.06;4986109;28;45543;-60
2022/12/05 10:26:48;;;;;;;;;45.00;38.75;;;;;5.23;67.93;101195.16;5012732;28;45430;-60
2022/12/05 10:29:27;;;;;;;;;44.75;37.50;;;;;5.25;67.88;101191.69;4995116;28;45492;-60
2022/12/05 10:32:02;;;;;;;;;45.50;39.25;;;;;5.26;67.21;101193.41;5013630;28;45363;-60
2022/12/05 10:34:36;;;;;;;;;47.25;38.50;;;;;5.21;66.73;101189.09;5013491;28;45504;-62
2022/12/05 10:37:19;;;;;;;;;46.00;39.50;;;;;5.21;67.92;101184.75;5013377;28;45449;-61
2022/12/05 10:39:46;;;;;;;;;47.00;39.75;;;;;5.23;67.61;101192.56;5013309;28;45477;-61
2022/12/05 10:42:34;;;;;;;;;45.25;37.00;;;;;5.19;67.74;101194.31;4995568;28;46111;-61
2022/12/05 10:45:05;;;;;;;;;41.75;38.75;;;;;5.22;67.94;101193.44;4994723;28;45535;-61
2022/12/05 10:47:32;;;;;;;;;44.50;38.75;;;;;5.22;67.69;101198.66;5013372;28;45540;-61
2022/12/05 10:50:04;;;;;;;;;47.75;40.00;;;;;5.20;66.98;101195.19;5013323;28;45663;-61
2022/12/05 10:52:31;;;;;;;;;44.00;38.50;;;;;5.22;67.30;101204.75;5013157;28;45603;-61
2022/12/05 10:55:01;;;;;;;;;46.50;37.25;;;;;5.25;67.88;101196.03;5013236;28;46073;-61
2022/12/05 10:57:31;;;;;;;;;42.25;38.00;;;;;5.27;67.43;101199.53;5013524;28;45473;-62
2022/12/05 10:59:57;;;;;;;;;53.75;40.00;;;;;5.28;67.26;101201.25;5013090;28;45527;-62
2022/12/05 11:02:28;;;;;;;;;49.25;41.75;;;;;5.27;67.53;101197.78;5013121;28;45543;-61
2022/12/05 11:04:54;;;;;;;;;46.50;38.75;;;;;5.28;67.38;101196.03;5012758;28;45622;-62
2022/12/05 11:07:30;;;;;;;;;45.00;38.00;;;;;5.31;67.25;101198.63;5013046;28;45652;-62
2022/12/05 11:09:57;;;;;;;;;40.50;36.00;;;;;5.34;67.39;101198.59;5012936;28;45512;-62
2022/12/05 11:12:28;;;;;;;;;38.00;35.50;;;;;5.34;66.20;101201.22;5013082;28;45550;-62
2022/12/05 11:14:54;;;;;;;;;38.75;30.00;;;;;5.37;66.63;101200.31;5013697;28;46803;-62
2022/12/05 11:17:35;;;;;;;;;46.50;39.25;;;;;5.37;66.98;101200.31;5012817;28;45497;-62
2022/12/05 11:20:21;;;;;;;;;44.50;38.50;;;;;5.37;66.55;101195.97;5013280;28;45529;-62
2022/12/05 11:22:58;;;;;;;;;52.25;42.00;;;;;5.32;66.17;101202.97;4989703;28;45467;-62
2022/12/05 11:25:35;;;;;;;;;45.50;39.25;;;;;5.24;65.29;101204.75;5012557;28;45534;-61
2022/12/05 11:28:15;;;;;;;;;50.50;40.25;;;;;5.18;66.82;101203.00;4989779;28;45428;-61
2022/12/05 11:30:56;;;;;;;;;56.75;42.75;;;;;5.19;67.02;101203.91;5008818;28;45445;-61
2022/12/05 11:33:22;;;;;;;;;52.25;42.00;;;;;5.19;66.56;101206.50;4998249;28;45444;-61
2022/12/05 11:35:50;;;;;;;;;52.75;42.00;;;;;5.13;66.55;101201.28;5015970;28;45513;-61